createdAt,value
2022-12-25T00:01:25.611Z,0.98
2022-12-25T00:03:58.639Z,0.98
2022-12-25T00:06:27.917Z,0.98
2022-12-25T00:08:56.353Z,0.98
2022-12-25T00:11:24.300Z,1.00
2022-12-25T00:13:54.173Z,1.03
2022-12-25T00:16:25.308Z,1.07
2022-12-25T00:18:56.335Z,1.07
2022-12-25T00:21:25.134Z,1.09
2022-12-25T00:24:00.043Z,1.13
2022-12-25T00:26:28.398Z,1.15
2022-12-25T00:28:58.901Z,1.15
2022-12-25T00:31:27.883Z,1.14
2022-12-25T00:33:59.222Z,1.15
2022-12-25T00:36:28.212Z,1.16
2022-12-25T00:38:58.519Z,1.17
2022-12-25T00:41:44.601Z,1.18
2022-12-25T00:44:13.781Z,1.17
2022-12-25T00:46:47.051Z,1.20
2022-12-25T00:49:15.934Z,1.24
2022-12-25T00:51:45.231Z,1.30
2022-12-25T00:54:13.161Z,1.32
2022-12-25T00:56:42.712Z,1.32
2022-12-25T00:59:11.138Z,1.32
2022-12-25T01:01:40.606Z,1.35
2022-12-25T01:04:11.703Z,1.38
2022-12-25T01:06:41.856Z,1.43
2022-12-25T01:09:31.959Z,1.46
2022-12-25T01:11:59.525Z,1.48
2022-12-25T01:14:32.306Z,1.53
2022-12-25T01:17:03.695Z,1.56
2022-12-25T01:19:32.430Z,1.60
2022-12-25T01:22:01.073Z,1.58
2022-12-25T01:24:30.322Z,1.54
2022-12-25T01:27:00.332Z,1.51
2022-12-25T01:29:32.988Z,1.50
2022-12-25T01:32:02.195Z,1.54
2022-12-25T01:34:31.036Z,1.61
2022-12-25T01:37:01.571Z,1.68
2022-12-25T01:39:30.116Z,1.76
2022-12-25T01:41:57.973Z,1.81
2022-12-25T01:44:38.082Z,1.87
2022-12-25T01:48:01.244Z,1.88
2022-12-25T01:50:29.524Z,1.82
2022-12-25T01:53:00.913Z,1.77
2022-12-25T01:55:31.493Z,1.74
2022-12-25T01:57:59.245Z,1.71
2022-12-25T02:00:28.321Z,1.67
2022-12-25T02:02:58.531Z,1.62
2022-12-25T02:05:32.401Z,1.56
2022-12-25T02:08:06.458Z,1.53
2022-12-25T02:10:34.337Z,1.54
2022-12-25T02:13:07.755Z,1.60
2022-12-25T02:15:54.557Z,1.69
2022-12-25T02:18:53.844Z,1.75
2022-12-25T02:21:44.081Z,1.80
2022-12-25T02:24:40.448Z,1.80
2022-12-25T02:27:31.325Z,1.69
2022-12-25T02:30:06.935Z,1.60
2022-12-25T02:32:37.538Z,1.57
2022-12-25T02:35:19.940Z,1.54
2022-12-25T02:38:10.800Z,1.48
2022-12-25T02:40:49.747Z,1.43
2022-12-25T02:43:57.019Z,1.40
2022-12-25T02:46:51.662Z,1.40
2022-12-25T02:49:42.632Z,1.39
2022-12-25T02:52:37.798Z,1.41
2022-12-25T02:55:30.413Z,1.49
2022-12-25T02:58:23.913Z,1.57
2022-12-25T03:01:16.365Z,1.68
2022-12-25T03:04:05.600Z,1.75
2022-12-25T03:06:46.849Z,1.77
2022-12-25T03:09:48.712Z,1.74
2022-12-25T03:12:51.962Z,1.67
2022-12-25T03:15:42.005Z,1.58
2022-12-25T03:18:26.413Z,1.53
2022-12-25T03:21:17.339Z,1.52
2022-12-25T03:24:09.666Z,1.50
2022-12-25T03:26:55.799Z,1.46
2022-12-25T03:29:49.911Z,1.43
2022-12-25T03:32:33.691Z,1.39
2022-12-25T03:35:22.518Z,1.35
2022-12-25T03:38:40.934Z,1.30
2022-12-25T03:41:38.716Z,1.29
2022-12-25T03:44:41.490Z,1.28
2022-12-25T03:48:23.816Z,1.33
2022-12-25T03:51:15.628Z,1.41
2022-12-25T03:54:11.965Z,1.48
2022-12-25T03:57:00.731Z,1.51
2022-12-25T03:59:48.927Z,1.56
2022-12-25T04:02:37.392Z,1.62
2022-12-25T04:05:24.225Z,1.65
2022-12-25T04:08:13.182Z,1.70
2022-12-25T04:10:59.546Z,1.78
2022-12-25T04:13:48.395Z,1.84
2022-12-25T04:16:38.048Z,1.91
2022-12-25T04:19:24.433Z,1.93
2022-12-25T04:22:10.801Z,1.94
2022-12-25T04:24:59.042Z,1.87
2022-12-25T04:27:46.331Z,1.80
2022-12-25T04:30:33.409Z,1.78
2022-12-25T04:33:19.888Z,1.81
2022-12-25T04:36:07.601Z,1.87
2022-12-25T04:38:36.792Z,1.95
2022-12-25T04:41:05.063Z,1.94
2022-12-25T04:43:36.365Z,1.92
2022-12-25T04:46:06.435Z,1.89
2022-12-25T04:48:37.923Z,1.86
2022-12-25T04:51:24.061Z,1.89
2022-12-25T04:53:54.038Z,1.93
2022-12-25T04:56:23.792Z,1.96
2022-12-25T04:58:51.717Z,1.98
2022-12-25T05:01:19.475Z,1.99
2022-12-25T05:03:47.323Z,1.98
2022-12-25T05:06:17.071Z,1.98
2022-12-25T05:08:48.093Z,2.00
2022-12-25T05:11:16.680Z,2.01
2022-12-25T05:13:47.966Z,2.03
2022-12-25T05:16:18.686Z,2.03
2022-12-25T05:18:51.220Z,1.95
2022-12-25T05:21:18.933Z,1.87
2022-12-25T05:23:52.944Z,1.81
2022-12-25T05:26:23.992Z,1.77
2022-12-25T05:28:54.695Z,1.73
2022-12-25T05:31:22.655Z,1.69
2022-12-25T05:33:52.862Z,1.66
2022-12-25T05:36:20.988Z,1.65
2022-12-25T05:38:49.991Z,1.70
2022-12-25T05:41:21.200Z,1.71
2022-12-25T05:43:50.325Z,1.72
2022-12-25T05:47:34.786Z,1.71
2022-12-25T05:50:03.923Z,1.73
2022-12-25T05:52:33.143Z,1.73
2022-12-25T05:55:01.907Z,1.79
2022-12-25T05:57:31.611Z,1.82
2022-12-25T05:59:59.498Z,1.84
2022-12-25T06:02:30.173Z,1.80
2022-12-25T06:05:00.010Z,1.77
2022-12-25T06:07:31.321Z,1.76
2022-12-25T06:10:00.595Z,1.76
2022-12-25T06:12:29.057Z,1.77
2022-12-25T06:14:58.266Z,1.79
2022-12-25T06:17:28.846Z,1.84
2022-12-25T06:19:59.768Z,1.90
2022-12-25T06:22:30.102Z,1.90
2022-12-25T06:24:58.820Z,1.85
2022-12-25T06:27:30.011Z,1.81
2022-12-25T06:29:57.839Z,1.81
2022-12-25T06:32:26.518Z,1.82
2022-12-25T06:34:57.574Z,1.84
2022-12-25T06:37:25.664Z,1.83
2022-12-25T06:39:53.423Z,1.81
2022-12-25T06:42:22.308Z,1.80
2022-12-25T06:44:50.765Z,1.81
2022-12-25T06:47:23.197Z,1.84
2022-12-25T06:49:56.320Z,1.85
2022-12-25T06:52:25.777Z,1.85
2022-12-25T06:54:54.009Z,1.90
2022-12-25T06:57:25.184Z,1.93
2022-12-25T06:59:55.591Z,1.92
2022-12-25T07:02:27.734Z,1.93
2022-12-25T07:05:05.579Z,1.97
2022-12-25T07:07:34.257Z,2.02
2022-12-25T07:10:06.309Z,2.06
2022-12-25T07:12:34.328Z,2.11
2022-12-25T07:15:02.105Z,2.14
2022-12-25T07:17:34.144Z,2.14
2022-12-25T07:20:02.137Z,2.14
2022-12-25T07:22:32.512Z,2.12
2022-12-25T07:25:02.756Z,2.13
2022-12-25T07:27:32.559Z,2.18
2022-12-25T07:30:02.263Z,2.21
2022-12-25T07:32:33.124Z,2.25
2022-12-25T07:35:02.607Z,2.21
2022-12-25T07:37:30.268Z,2.16
2022-12-25T07:39:58.644Z,2.11
2022-12-25T07:42:27.447Z,2.05
2022-12-25T07:44:55.541Z,2.00
2022-12-25T07:47:57.752Z,1.97
2022-12-25T07:50:28.545Z,1.97
2022-12-25T07:52:57.321Z,1.97
2022-12-25T07:55:25.305Z,1.96
2022-12-25T07:57:54.037Z,1.97
2022-12-25T08:00:21.954Z,1.98
2022-12-25T08:02:50.562Z,1.98
2022-12-25T08:05:20.217Z,2.00
2022-12-25T08:07:57.002Z,2.06
2022-12-25T08:10:26.555Z,2.13
2022-12-25T08:12:56.133Z,2.15
2022-12-25T08:15:23.716Z,2.17
2022-12-25T08:17:53.258Z,2.17
2022-12-25T08:20:24.607Z,2.15
2022-12-25T08:22:53.565Z,2.13
2022-12-25T08:25:21.551Z,2.16
2022-12-25T08:27:50.976Z,2.17
2022-12-25T08:30:26.697Z,2.19
2022-12-25T08:32:56.828Z,2.22
2022-12-25T08:35:25.966Z,2.22
2022-12-25T08:37:55.141Z,2.22
2022-12-25T08:40:26.279Z,2.23
2022-12-25T08:42:58.064Z,2.22
2022-12-25T08:45:34.708Z,2.21
2022-12-25T08:48:04.076Z,2.22
2022-12-25T08:50:32.565Z,2.25
2022-12-25T08:53:04.000Z,2.30
2022-12-25T08:55:37.399Z,2.35
2022-12-25T08:58:08.037Z,2.39
2022-12-25T09:00:38.217Z,2.44
2022-12-25T09:03:06.996Z,2.51
2022-12-25T09:05:37.197Z,2.51
2022-12-25T09:08:05.625Z,2.52
2022-12-25T09:10:37.309Z,2.54
2022-12-25T09:13:05.492Z,2.55
2022-12-25T09:15:35.912Z,2.56
2022-12-25T09:18:06.207Z,2.59
2022-12-25T09:20:37.820Z,2.63
2022-12-25T09:23:13.343Z,2.67
2022-12-25T09:25:41.812Z,2.70
2022-12-25T09:28:10.153Z,2.75
2022-12-25T09:30:40.238Z,2.82
2022-12-25T09:33:08.632Z,2.94
2022-12-25T09:35:37.293Z,3.03
2022-12-25T09:38:05.974Z,3.10
2022-12-25T09:40:35.101Z,3.16
2022-12-25T09:43:10.724Z,3.19
2022-12-25T09:45:42.862Z,3.21
2022-12-25T09:48:15.866Z,3.22
2022-12-25T09:51:13.766Z,3.24
2022-12-25T09:54:05.082Z,3.24
2022-12-25T09:56:35.720Z,3.22
2022-12-25T09:59:14.008Z,3.23
2022-12-25T10:02:02.397Z,3.26
2022-12-25T10:05:09.522Z,3.29
2022-12-25T10:08:35.587Z,3.31
2022-12-25T10:11:16.966Z,3.33
2022-12-25T10:14:16.820Z,3.33
2022-12-25T10:17:06.834Z,3.37
2022-12-25T10:19:48.920Z,3.40
2022-12-25T10:22:36.167Z,3.44
2022-12-25T10:25:07.782Z,3.50
2022-12-25T10:27:44.516Z,3.56
2022-12-25T10:47:28.148Z,3.89
2022-12-25T10:49:58.623Z,3.94
2022-12-25T10:52:28.813Z,3.97
2022-12-25T10:54:58.350Z,3.99
2022-12-25T10:57:44.824Z,4.00
2022-12-25T11:00:35.344Z,4.02
2022-12-25T11:03:34.343Z,4.03
2022-12-25T11:06:17.030Z,3.99
2022-12-25T11:09:41.888Z,3.91
2022-12-25T11:13:34.159Z,3.77
2022-12-25T11:16:28.924Z,3.69
2022-12-25T11:19:09.807Z,3.64
2022-12-25T11:22:02.163Z,3.62
2022-12-25T11:24:54.920Z,3.61
2022-12-25T11:27:37.102Z,3.64
2022-12-25T11:30:07.029Z,3.64
2022-12-25T11:32:48.026Z,3.63
2022-12-25T11:35:19.972Z,3.65
2022-12-25T11:37:50.790Z,3.65
2022-12-25T11:40:35.813Z,3.65
2022-12-25T11:43:12.934Z,3.69
2022-12-25T11:45:56.179Z,3.67
2022-12-25T11:48:37.084Z,3.64
2022-12-25T11:51:10.837Z,3.64
2022-12-25T11:53:48.456Z,3.65
2022-12-25T11:56:21.786Z,3.66
2022-12-25T11:58:58.041Z,3.66
2022-12-25T12:01:54.615Z,3.67
2022-12-25T12:04:30.892Z,3.69
2022-12-25T12:07:03.675Z,3.70
2022-12-25T12:09:48.227Z,3.71
2022-12-25T12:12:48.523Z,3.70
2022-12-25T12:15:41.267Z,3.66
2022-12-25T12:18:23.719Z,3.65
2022-12-25T12:21:11.274Z,3.63
2022-12-25T12:24:06.954Z,3.61
2022-12-25T12:26:40.724Z,3.57
2022-12-25T12:29:25.535Z,3.55
2022-12-25T12:32:00.262Z,3.53
2022-12-25T12:34:52.844Z,3.52
2022-12-25T12:37:31.559Z,3.52
2022-12-25T12:40:05.088Z,3.53
2022-12-25T12:42:46.145Z,3.56
2022-12-25T12:45:43.544Z,3.54
2022-12-25T12:48:53.452Z,3.52
2022-12-25T12:51:40.567Z,3.49
2022-12-25T12:57:47.589Z,3.43
2022-12-25T13:00:22.565Z,3.40
2022-12-25T13:03:17.490Z,3.41
2022-12-25T13:06:00.797Z,3.42
2022-12-25T13:08:43.993Z,3.45
2022-12-25T13:11:25.197Z,3.49
2022-12-25T13:13:57.289Z,3.51
2022-12-25T13:35:15.325Z,3.61
2022-12-25T13:47:31.849Z,3.61
2022-12-25T13:55:16.803Z,3.58
2022-12-25T14:07:11.991Z,3.54
2022-12-25T14:09:41.817Z,3.51
2022-12-25T14:12:19.075Z,3.51
2022-12-25T14:14:49.685Z,3.52
2022-12-25T14:17:19.479Z,3.51
2022-12-25T14:19:59.848Z,3.49
2022-12-25T14:22:33.938Z,3.49
2022-12-25T14:25:02.932Z,3.48
2022-12-25T14:27:33.169Z,3.45
2022-12-25T14:30:03.594Z,3.45
2022-12-25T14:32:44.243Z,3.48
2022-12-25T14:35:22.962Z,3.52
2022-12-25T14:37:59.741Z,3.56
2022-12-25T14:40:35.868Z,3.61
2022-12-25T14:43:19.932Z,3.64
2022-12-25T14:46:01.094Z,3.67
2022-12-25T14:48:32.276Z,3.69
2022-12-25T14:51:14.863Z,3.70
2022-12-25T14:53:50.145Z,3.71
2022-12-25T14:56:21.920Z,3.69
2022-12-25T14:58:58.816Z,3.68
2022-12-25T15:01:33.726Z,3.69
2022-12-25T15:04:25.503Z,3.74
2022-12-25T15:07:07.070Z,3.76
2022-12-25T15:09:40.012Z,3.72
2022-12-25T15:12:11.407Z,3.66
2022-12-25T15:14:39.934Z,3.64
2022-12-25T15:17:20.754Z,3.64
2022-12-25T15:19:55.012Z,3.65
2022-12-25T15:22:26.598Z,3.67
2022-12-25T15:25:00.629Z,3.67
2022-12-25T15:27:34.895Z,3.70
2022-12-25T15:30:10.142Z,3.70
2022-12-25T15:32:40.493Z,3.70
2022-12-25T15:35:20.703Z,3.70
2022-12-25T15:37:50.624Z,3.70
2022-12-25T15:40:21.086Z,3.70
2022-12-25T15:43:00.779Z,3.72
2022-12-25T15:45:30.544Z,3.71
2022-12-25T15:48:55.367Z,3.69
2022-12-25T15:51:25.285Z,3.64
2022-12-25T15:53:58.806Z,3.62
2022-12-25T15:56:27.763Z,3.60
2022-12-25T15:58:57.795Z,3.59
2022-12-25T16:01:27.686Z,3.59
2022-12-25T16:03:57.954Z,3.59
2022-12-25T16:06:26.497Z,3.54
2022-12-25T16:08:54.590Z,3.52
2022-12-25T16:11:22.910Z,3.51
2022-12-25T16:13:50.559Z,3.52
2022-12-25T16:16:19.856Z,3.52
2022-12-25T16:18:48.423Z,3.52
2022-12-25T16:21:18.996Z,3.51
2022-12-25T16:23:47.567Z,3.51
2022-12-25T16:26:15.755Z,3.51
2022-12-25T16:28:44.460Z,3.52
2022-12-25T16:31:12.327Z,3.52
2022-12-25T16:33:41.811Z,3.51
2022-12-25T16:36:11.583Z,3.48
2022-12-25T16:38:41.106Z,3.45
2022-12-25T16:41:12.193Z,3.45
2022-12-25T16:43:42.501Z,3.46
2022-12-25T16:46:16.538Z,3.46
2022-12-25T16:48:49.196Z,3.46
2022-12-25T16:51:20.746Z,3.48
2022-12-25T16:53:48.605Z,3.48
2022-12-25T16:56:23.147Z,3.48
2022-12-25T16:58:53.075Z,3.48
2022-12-25T17:01:24.033Z,3.49
2022-12-25T17:03:53.445Z,3.49
2022-12-25T17:06:25.979Z,3.50
2022-12-25T17:08:58.902Z,3.51
2022-12-25T17:11:29.564Z,3.51
2022-12-25T17:14:03.128Z,3.52
2022-12-25T17:16:34.711Z,3.52
2022-12-25T17:19:07.919Z,3.53
2022-12-25T17:21:41.704Z,3.53
2022-12-25T17:24:09.965Z,3.52
2022-12-25T17:26:40.637Z,3.52
2022-12-25T17:29:10.286Z,3.52
2022-12-25T17:31:39.670Z,3.51
2022-12-25T17:34:09.281Z,3.51
2022-12-25T17:36:38.037Z,3.50
2022-12-25T17:39:06.635Z,3.51
2022-12-25T17:41:35.396Z,3.51
2022-12-25T17:44:07.112Z,3.51
2022-12-25T17:47:05.597Z,3.50
2022-12-25T17:49:36.335Z,3.51
2022-12-25T17:52:06.552Z,3.51
2022-12-25T17:54:35.279Z,3.51
2022-12-25T17:57:03.769Z,3.52
2022-12-25T17:59:39.702Z,3.52
2022-12-25T18:09:05.463Z,3.52
2022-12-25T18:12:15.829Z,3.52
2022-12-25T18:17:58.680Z,3.55
2022-12-25T18:20:50.563Z,3.55
2022-12-25T18:27:37.513Z,3.60
2022-12-25T18:30:13.281Z,3.61
2022-12-25T18:32:56.086Z,3.61
2022-12-25T18:35:33.750Z,3.61
2022-12-25T18:38:17.967Z,3.62
2022-12-25T18:40:56.716Z,3.63
2022-12-25T18:43:53.620Z,3.63
2022-12-25T18:46:49.150Z,3.63
2022-12-25T18:49:17.720Z,3.63
2022-12-25T18:51:49.610Z,3.65
2022-12-25T18:54:17.841Z,3.65
2022-12-25T18:56:53.399Z,3.66
2022-12-25T18:59:21.868Z,3.68
2022-12-25T19:01:52.713Z,3.69
2022-12-25T19:04:20.945Z,3.69
2022-12-25T19:06:51.565Z,3.71
2022-12-25T19:09:20.220Z,3.72
2022-12-25T19:11:49.448Z,3.72
2022-12-25T19:14:19.684Z,3.73
2022-12-25T19:16:48.928Z,3.73
2022-12-25T19:19:18.492Z,3.75
2022-12-25T19:21:52.424Z,3.77
2022-12-25T19:24:20.612Z,3.78
2022-12-25T19:26:49.327Z,3.79
2022-12-25T19:29:19.025Z,3.80
2022-12-25T19:31:47.876Z,3.79
2022-12-25T19:34:16.438Z,3.80
2022-12-25T19:36:44.861Z,3.80
2022-12-25T19:39:17.329Z,3.80
2022-12-25T19:44:29.750Z,3.78
2022-12-25T19:47:06.182Z,3.78
2022-12-25T19:49:34.100Z,3.79
2022-12-25T19:52:05.260Z,3.79
2022-12-25T19:54:36.915Z,3.80
2022-12-25T19:57:05.591Z,3.80
2022-12-25T19:59:34.139Z,3.81
2022-12-25T20:02:04.554Z,3.81
2022-12-25T20:04:33.212Z,3.81
2022-12-25T20:07:02.913Z,3.81
2022-12-25T20:09:35.739Z,3.81
2022-12-25T20:12:04.650Z,3.83
2022-12-25T20:14:35.920Z,3.83
2022-12-25T20:17:06.611Z,3.84
2022-12-25T20:19:40.160Z,3.85
2022-12-25T20:22:09.888Z,3.85
2022-12-25T20:24:40.597Z,3.85
2022-12-25T20:27:13.150Z,3.84
2022-12-25T20:29:42.914Z,3.85
2022-12-25T20:32:14.681Z,3.86
2022-12-25T20:34:44.731Z,3.87
2022-12-25T20:37:13.579Z,3.89
2022-12-25T20:39:47.940Z,3.88
2022-12-25T20:42:17.134Z,3.88
2022-12-25T20:44:47.579Z,3.90
2022-12-25T20:47:47.753Z,3.92
2022-12-25T20:50:17.959Z,3.93
2022-12-25T20:52:47.094Z,3.92
2022-12-25T20:55:16.322Z,3.91
2022-12-25T20:57:45.075Z,3.90
2022-12-25T21:00:14.737Z,3.87
2022-12-25T21:02:43.782Z,3.87
2022-12-25T21:05:11.815Z,3.86
2022-12-25T21:07:40.260Z,3.85
2022-12-25T21:10:09.777Z,3.85
2022-12-25T21:12:40.578Z,3.84
2022-12-25T21:15:15.008Z,3.84
2022-12-25T21:17:43.296Z,3.85
2022-12-25T21:20:12.167Z,3.87
2022-12-25T21:22:42.146Z,3.88
2022-12-25T21:25:10.392Z,3.87
2022-12-25T21:27:39.069Z,3.88
2022-12-25T21:30:15.433Z,3.88
2022-12-25T21:33:02.709Z,3.90
2022-12-25T21:35:30.924Z,3.92
2022-12-25T21:38:01.466Z,3.91
2022-12-25T21:40:33.394Z,3.91
2022-12-25T21:43:01.329Z,3.92
2022-12-25T21:45:30.248Z,3.92
2022-12-25T21:48:47.652Z,3.93
2022-12-25T21:51:43.635Z,3.91
2022-12-25T21:54:13.248Z,3.91
2022-12-25T21:56:45.473Z,3.91
2022-12-25T21:59:17.292Z,3.90
2022-12-25T22:01:50.418Z,3.89
2022-12-25T22:04:22.961Z,3.90
2022-12-25T22:07:13.727Z,3.88
2022-12-25T22:09:45.053Z,3.88
2022-12-25T22:12:49.736Z,3.88
2022-12-25T22:15:18.799Z,3.89
2022-12-25T22:18:08.556Z,3.90
2022-12-25T22:20:38.355Z,3.90
2022-12-25T22:23:08.286Z,3.91
2022-12-25T22:25:36.559Z,3.91
2022-12-25T22:28:04.270Z,3.93
2022-12-25T22:30:32.085Z,3.94
2022-12-25T22:33:05.605Z,3.95
2022-12-25T22:35:34.299Z,3.97
2022-12-25T22:38:04.775Z,3.99
2022-12-25T22:40:38.457Z,4.01
2022-12-25T22:43:06.032Z,4.03
2022-12-25T22:45:33.749Z,4.05
2022-12-25T22:48:51.475Z,4.06
2022-12-25T22:51:19.262Z,4.07
2022-12-25T22:53:47.036Z,4.07
2022-12-25T22:56:17.601Z,4.09
2022-12-25T22:58:46.419Z,4.09
2022-12-25T23:01:16.897Z,4.10
2022-12-25T23:03:46.427Z,4.10
2022-12-25T23:06:15.398Z,4.09
2022-12-25T23:08:43.533Z,4.08
2022-12-25T23:11:12.385Z,4.06
2022-12-25T23:13:58.797Z,4.05
2022-12-25T23:16:27.044Z,4.04
2022-12-25T23:19:15.343Z,4.03
2022-12-25T23:22:03.019Z,4.04
2022-12-25T23:24:50.843Z,4.05
2022-12-25T23:27:20.544Z,4.06
2022-12-25T23:29:50.808Z,4.07
2022-12-25T23:32:22.242Z,4.07
2022-12-25T23:34:52.135Z,4.07
2022-12-25T23:37:20.184Z,4.08
2022-12-25T23:39:49.795Z,4.09
2022-12-25T23:42:18.035Z,4.11
2022-12-25T23:44:49.474Z,4.12
2022-12-25T23:47:44.583Z,4.15
2022-12-25T23:50:14.947Z,4.15
2022-12-25T23:52:43.621Z,4.14
2022-12-25T23:55:12.761Z,4.13
2022-12-25T23:57:41.476Z,4.11
